CPX460 Details

Departure: Newark Liberty International Airport (KEWR)
Arrival: Minneapolis-St Paul International Airport (KMSP)
Route: COATE Q436 RAAKK Q440 SLLAP IDIOM MUSCL3


Current Weather Information
KEWR 191651Z 20012KT 10SM FEW035 SCT250 31/22 A2997 RMK AO2 SLP148 T03110222
KMSP 191653Z 19007G14KT 170V230 10SM FEW250 24/12 A3002 RMK AO2 SLP162 T02390122